Flight Track Log - Related Links

Times and Time Zones

All times are in EDT time to prevent confusion due to time zone crossing. See the FLG3388 flight status page for this flight to view local times or setup timezone preferences in your user account.

Time Position Orientation Groundspeed Altitude Reporting Facility
EDT Latitude Longitude Course Direction KTS MPH feet Rate Location/Type
Sat 11:01:48 AM 44.9000 -93.2500 197° South 178 205 2,200  Level Minneapolis TRACON
Sat 11:02:35 AM 44.8894 -93.2978 253° West 192 221 3,000 1,486 Climbing Minneapolis Center
Sat 11:03:37 AM 44.8314 -93.3531 214° Southwest 275 316 4,900 2,129 Climbing Minneapolis Center
Sat 11:04:00 AM 44.5249 -93.3738 142° Southeast  Level Estimated
Sat 11:04:39 AM 44.7772 -93.2814 137° Southeast 276 318 7,400  Level Minneapolis Center
Sat 11:05:00 AM 44.4059 -93.4240 141° Southeast  Level Estimated
Sat 11:05:41 AM 44.7358 -93.2003 126° Southeast 283 326 9,500  Level Minneapolis Center
Sat 11:06:00 AM 44.2868 -93.4741 120° Southeast  Level Estimated
Sat 11:06:43 AM 44.6747 -93.0833 126° Southeast 315 362 11,400  Level Minneapolis Center
Sat 11:07:00 AM 44.1720 -93.5221 197° South  Level Estimated
Sat 11:07:45 AM 44.6158 -92.9706 126° Southeast 357 411 13,500  Level Minneapolis Center
Sat 11:08:47 AM 44.5511 -92.8619 130° Southeast 366 421 15,400 1,935 Climbing Minneapolis Center
Sat 11:09:49 AM 44.4508 -92.8033 157° South 388 447 17,500 1,887 Climbing Minneapolis Center
Sat 11:10:51 AM 44.3508 -92.7481 158° South 388 447 19,300 1,694 Climbing Minneapolis Center
Sat 11:11:53 AM 44.2147 -92.7639 185° South 424 488 21,000 1,548 Climbing Minneapolis Center
Sat 11:12:55 AM 44.1014 -92.8128 197° South 425 489 22,500 1,452 Climbing Minneapolis Center
Sat 11:13:57 AM 43.9850 -92.8639 198° South 432 497 24,000 1,306 Climbing Minneapolis Center
Sat 11:14:59 AM 43.8672 -92.9136 197° South 440 506 25,200 1,210 Climbing Minneapolis Center
Sat 11:16:01 AM 43.7408 -92.9683 197° South 453 521 26,500 1,104 Climbing Minneapolis Center
Sat 11:17:04 AM 43.6186 -93.0206 197° South 460 529 27,500 1,008 Climbing Minneapolis Center
Sat 11:18:06 AM 43.4939 -93.0725 197° South 469 540 28,600 1,500 Climbing Minneapolis Center
Sat 11:19:08 AM 43.3458 -93.1356 197° South 470 541 30,600 1,463 Climbing Minneapolis Center
Sat 11:20:09 AM 43.2486 -93.1769 197° South 467 537 31,600 968 Climbing Minneapolis Center
Sat 11:21:12 AM 43.1053 -93.2353 197° South 460 529 32,600 960 Climbing Minneapolis Center
Sat 11:22:14 AM 42.9861 -93.2858 197° South 455 524 33,600 677 Climbing Minneapolis Center
Sat 11:23:16 AM 42.8667 -93.3344 197° South 453 521 34,000 194 Climbing Minneapolis Center
Sat 11:24:18 AM 42.7167 -93.3964 197° South 471 542 34,000  Level Minneapolis Center
Sat 11:25:20 AM 42.5911 -93.4483 197° South 475 547 34,000  Level Minneapolis Center
Sat 11:26:22 AM 42.4653 -93.5003 197° South 477 549 34,000  Level Minneapolis Center
Sat 11:27:24 AM 42.3375 -93.5506 196° South 483 556 34,000  Level Minneapolis Center
Sat 11:28:26 AM 42.2367 -93.5928 197° South 480 552 34,000  Level Minneapolis Center
Sat 11:29:28 AM 42.0578 -93.6633 196° South 483 556 34,000  Level Minneapolis Center
Sat 11:30:30 AM 41.9228 -93.7167 196° South 483 556 34,000 242 Level Minneapolis Center
Sat 11:31:32 AM 41.7947 -93.7683 197° South 484 557 34,500 581 Climbing Minneapolis Center
Sat 11:32:34 AM 41.6675 -93.8181 196° South 482 555 35,200 581 Climbing Minneapolis Center
Sat 11:33:36 AM 41.5411 -93.8686 197° South 479 551 35,700 384 Climbing Minneapolis Center
Sat 11:34:39 AM 41.3853 -93.9306 197° South 487 560 36,000 144 Climbing Minneapolis Center
Sat 11:35:41 AM 41.2567 -93.9825 197° South 488 562 36,000  Level Minneapolis Center
Sat 11:36:43 AM 41.1311 -94.0317 196° South 482 555 36,000  Level Minneapolis Center
Sat 11:37:45 AM 41.0075 -94.0789 196° South 474 545 36,000  Level Minneapolis Center
Sat 11:38:47 AM 40.8817 -94.1278 196° South 473 544 36,000  Level Minneapolis Center
Sat 11:39:49 AM 40.7297 -94.1875 197° South 477 549 36,000  Level Minneapolis Center
Sat 11:40:51 AM 40.5992 -94.2378 196° South 484 557 36,000  Level Minneapolis Center
Sat 11:41:53 AM 40.4669 -94.2881 196° South 490 564 36,000  Level Minneapolis Center
Sat 11:42:55 AM 40.3372 -94.3383 196° South 493 567 36,000  Level Minneapolis Center
Sat 11:43:57 AM 40.1811 -94.3975 196° South 492 566 36,000  Level Minneapolis Center
Sat 11:45:05 AM 40.0386 -94.4494 196° South 496 571 36,000  Level Kansas City Center
Sat 11:46:07 AM 39.9108 -94.4981 196° South 499 574 36,000  Level Kansas City Center
Sat 11:47:09 AM 39.7628 -94.5542 196° South 495 570 36,000  Level Kansas City Center
Sat 11:48:11 AM 39.6350 -94.6022 196° South 497 572 36,000  Level Kansas City Center
Sat 11:49:13 AM 39.4844 -94.6581 196° South 501 577 36,000  Level Kansas City Center
Sat 11:50:15 AM 39.3561 -94.7067 196° South 498 573 36,000  Level Kansas City Center
Sat 11:51:17 AM 39.2033 -94.7611 195° South 503 579 36,000  Level Kansas City Center
Sat 11:52:19 AM 39.0728 -94.8089 196° South 503 579 36,000  Level Kansas City Center
Sat 11:53:21 AM 38.9444 -94.8567 196° South 497 572 36,000  Level Kansas City Center
Sat 11:54:23 AM 38.7953 -94.9114 196° South 497 572 36,000  Level Kansas City Center
Sat 11:55:25 AM 38.6683 -94.9572 196° South 493 567 36,000  Level Kansas City Center
Sat 11:56:27 AM 38.5214 -95.0122 196° South 490 564 36,000  Level Kansas City Center
Sat 11:57:29 AM 38.3967 -95.0553 195° South 486 559 36,000  Level Kansas City Center
Sat 11:58:31 AM 38.2514 -95.1072 196° South 485 558 36,000  Level Kansas City Center
Sat 11:59:33 AM 38.1264 -95.1497 195° South 484 557 36,000  Level Kansas City Center
Sat 12:00:35 PM 38.0019 -95.1953 196° South 486 559 36,000  Level Kansas City Center
Sat 12:01:37 PM 37.8508 -95.2506 196° South 485 558 36,000  Level Kansas City Center
Sat 12:02:39 PM 37.7211 -95.2956 195° South 484 557 36,000  Level Kansas City Center
Sat 12:03:41 PM 37.5911 -95.3403 195° South 483 556 36,000  Level Kansas City Center
Sat 12:04:44 PM 37.4608 -95.3853 195° South 485 558 36,000  Level Kansas City Center
Sat 12:05:45 PM 37.3317 -95.4308 196° South 482 555 36,000  Level Kansas City Center
Sat 12:06:47 PM 37.2011 -95.4750 195° South 484 557 36,000  Level Kansas City Center
Sat 12:07:49 PM 37.0453 -95.5297 196° South 484 557 36,000  Level Kansas City Center
Sat 12:08:51 PM 36.9156 -95.5744 195° South 483 556 36,000  Level Kansas City Center
Sat 12:09:53 PM 36.7867 -95.6189 195° South 482 555 36,000  Level Kansas City Center
Sat 12:10:55 PM 36.6575 -95.6625 195° South 483 556 36,000  Level Kansas City Center
Sat 12:11:57 PM 36.5103 -95.7131 195° South 482 555 36,000  Level Kansas City Center
Sat 12:13:00 PM 36.3767 -95.7581 195° South 481 554 36,000  Level Kansas City Center
Sat 12:14:02 PM 36.2486 -95.8017 195° South 481 554 36,000  Level Kansas City Center
Sat 12:15:04 PM 36.1192 -95.8450 195° South 484 557 36,000  Level Kansas City Center
Sat 12:16:06 PM 35.9897 -95.8883 195° South 483 556 36,000  Level Kansas City Center
Sat 12:17:08 PM 35.8597 -95.9319 195° South 483 556 36,000  Level Kansas City Center
Sat 12:18:10 PM 35.7039 -95.9842 195° South 483 556 36,000  Level Kansas City Center
Sat 12:19:12 PM 35.5728 -96.0272 195° South 485 558 36,000  Level Kansas City Center
Sat 12:20:14 PM 35.4428 -96.0700 195° South 485 558 36,000  Level Kansas City Center
Sat 12:21:18 PM 35.3058 -96.1186 196° South 489 563 36,000  Level Fort Worth Center
Sat 12:22:18 PM 35.1728 -96.1614 195° South 489 563 36,000  Level Fort Worth Center
Sat 12:23:18 PM 35.0417 -96.2014 194° South 489 563 36,000  Level Fort Worth Center
Sat 12:24:18 PM 34.9147 -96.2461 196° South 484 557 36,000  Level Fort Worth Center
Sat 12:25:18 PM 34.7839 -96.2911 196° South 484 557 36,000  Level Fort Worth Center
Sat 12:26:18 PM 34.6528 -96.3331 195° South 489 563 36,000  Level Fort Worth Center
Sat 12:27:18 PM 34.5258 -96.3750 195° South 489 563 36,000  Level Fort Worth Center
Sat 12:28:18 PM 34.3969 -96.4169 195° South 489 563 36,000  Level Fort Worth Center
Sat 12:29:18 PM 34.2719 -96.4586 195° South 477 549 36,000  Level Fort Worth Center
Sat 12:30:18 PM 34.1428 -96.4975 194° South 471 542 36,000  Level Fort Worth Center
Sat 12:31:18 PM 34.0242 -96.5339 194° South 466 536 36,000  Level Fort Worth Center
Sat 12:32:18 PM 33.8972 -96.5753 195° South 466 536 36,000  Level Fort Worth Center
Sat 12:33:18 PM 33.7703 -96.6164 195° South 472 543 36,000  Level Fort Worth Center
Sat 12:35:18 PM 33.5161 -96.6958 195° South 472 543 36,000  Level Fort Worth Center
Sat 12:36:18 PM 33.3869 -96.7367 195° South 472 543 36,000  Level Fort Worth Center
Sat 12:37:18 PM 33.2617 -96.7750 194° South 472 543 36,000  Level Fort Worth Center
Sat 12:38:18 PM 33.1347 -96.8156 195° South 472 543 36,000  Level Fort Worth Center
Sat 12:39:18 PM 33.0053 -96.8536 194° South 472 543 36,000  Level Fort Worth Center
Sat 12:40:18 PM 32.8783 -96.8964 196° South 472 543 36,000  Level Fort Worth Center
Sat 12:41:18 PM 32.7469 -96.9342 194° South 472 543 36,000  Level Fort Worth Center
Sat 12:42:18 PM 32.6197 -96.9744 195° South 477 549 36,000  Level Fort Worth Center
Sat 12:43:18 PM 32.4903 -97.0169 195° South 477 549 36,000  Level Fort Worth Center
Sat 12:44:18 PM 32.3631 -97.0494 192° South 472 543 36,000  Level Fort Worth Center
Sat 12:45:18 PM 32.2317 -97.0844 193° South 472 543 36,000  Level Fort Worth Center
Sat 12:46:18 PM 32.1044 -97.1167 192° South 472 543 36,000  Level Fort Worth Center
Sat 12:47:18 PM 31.9731 -97.1514 193° South 477 549 36,000  Level Fort Worth Center
Sat 12:48:18 PM 31.8478 -97.1786 190° South 469 540 36,000  Level Fort Worth Center
Sat 12:50:09 PM 31.6058 -97.2372 192° South 474 545 36,000  Level Houston Center
Sat 12:51:11 PM 31.4756 -97.2686 192° South 473 544 36,000  Level Houston Center
Sat 12:52:13 PM 31.3458 -97.3003 192° South 471 542 36,000  Level Houston Center
Sat 12:53:15 PM 31.1956 -97.3375 192° South 470 541 36,000 -194 Level Houston Center
Sat 12:54:17 PM 31.0672 -97.3692 192° South 471 542 35,600 -871 Descending Houston Center
Sat 12:55:19 PM 30.9414 -97.4200 199° South 489 563 34,200 -1,355 Descending Houston Center
Sat 12:56:21 PM 30.8100 -97.4725 199° South 503 579 32,800 -1,839 Descending Houston Center
Sat 12:57:23 PM 30.6786 -97.5283 200° South 501 577 30,400 -2,829 Descending Houston Center
Sat 12:58:24 PM 30.5289 -97.5925 200° South 490 564 27,000 -3,171 Descending Houston Center
Sat 12:59:26 PM 30.4036 -97.6467 200° South 478 550 23,900 -2,855 Descending Houston Center
Sat 01:00:28 PM 30.2831 -97.6983 200° South 461 531 21,100 -2,710 Descending Houston Center
Sat 01:01:30 PM 30.1639 -97.7492 200° South 452 520 18,300 -2,692 Descending Houston Center
Sat 01:02:15 PM 30.0783 -97.7858 200° South 434 499 16,300 -2,565 Descending Houston Center
Sat 01:03:34 PM 29.9325 -97.8469 200° South 421 484 13,000 -1,574 Descending Houston Center
Sat 01:04:36 PM 29.8481 -97.9481 226° Southwest 403 464 12,600 -898 Descending Houston Center
Sat 01:05:41 PM 29.7683 -98.0369 224° Southwest 355 409 11,100 -1,512 Descending Houston Center
Sat 01:06:39 PM 29.7044 -98.1106 225° Southwest 325 374 9,500 -1,900 Descending Houston Center
Sat 01:07:41 PM 29.6456 -98.1800 226° Southwest 304 350 7,300 -1,924 Descending Houston Center
Sat 01:08:50 PM 29.5789 -98.2553 224° Southwest 290 334 5,300 -1,739 Descending Houston Center

Login

Don't have an account? Register now (free) for customized features, flight alerts, and more!